Time;durP1;ratioP1;P1;durP2;ratioP2;P2;SDS_P1;SDS_P2;PMS_P1;PMS_P2;Temp;Humidity;BMP_temperature;BMP_pressure;BME280_temperature;BME280_humidity;BME280_pressure;Samples;Min_cycle;Max_cycle;Signal;HPM_P1;HPM_P2
2021/12/14 00:00:47;;;;;;;7.17;4.20;;;10.00;99.90;;;;;;6283132;22;20176;-87
2021/12/14 00:03:15;;;;;;;7.40;4.67;;;10.00;99.90;;;;;;6282941;22;20154;-87
2021/12/14 00:05:42;;;;;;;7.73;4.03;;;10.10;99.90;;;;;;6309955;22;20147;-87
2021/12/14 00:08:12;;;;;;;4.70;3.70;;;10.00;99.90;;;;;;6309100;22;20146;-87
2021/12/14 00:13:43;;;;;;;5.97;4.13;;;10.00;99.90;;;;;;6314294;22;20242;-86
2021/12/14 00:16:11;;;;;;;6.13;4.37;;;9.90;99.90;;;;;;6309631;22;20475;-87
2021/12/14 00:18:38;;;;;;;6.30;4.17;;;10.00;99.90;;;;;;6309931;22;20491;-87
2021/12/14 00:21:09;;;;;;;6.87;4.23;;;10.00;99.90;;;;;;6310000;22;20154;-88
2021/12/14 00:26:21;;;;;;;6.80;4.03;;;9.80;99.90;;;;;;6310158;22;20237;-87
2021/12/14 00:28:48;;;;;;;6.30;4.13;;;9.90;99.90;;;;;;6282548;22;20158;-87
2021/12/14 00:31:17;;;;;;;5.67;3.70;;;9.90;99.90;;;;;;6282326;22;20590;-86
2021/12/14 00:33:46;;;;;;;5.83;3.90;;;9.70;99.90;;;;;;6281901;22;20178;-87
2021/12/14 00:36:13;;;;;;;7.30;3.87;;;9.80;99.90;;;;;;6281123;22;20148;-86
2021/12/14 00:38:42;;;;;;;8.10;4.13;;;9.70;99.90;;;;;;6307430;22;20190;-86
2021/12/14 00:41:13;;;;;;;7.23;4.20;;;9.80;99.90;;;;;;6308045;22;20241;-86
2021/12/14 00:43:39;;;;;;;7.77;4.00;;;9.90;99.90;;;;;;6281179;22;20156;-86
2021/12/14 00:46:05;;;;;;;6.30;4.43;;;10.00;99.90;;;;;;6309303;22;20144;-86
2021/12/14 00:48:32;;;;;;;6.40;4.00;;;10.00;99.90;;;;;;6280622;22;20188;-86
2021/12/14 00:50:59;;;;;;;6.30;4.23;;;10.00;99.90;;;;;;6308451;22;20169;-85
2021/12/14 00:53:26;;;;;;;6.30;4.20;;;10.00;99.90;;;;;;6307823;22;20623;-86
2021/12/14 00:55:54;;;;;;;7.47;4.43;;;10.10;99.90;;;;;;6308245;22;20138;-86
2021/12/14 00:58:21;;;;;;;6.03;4.40;;;10.00;99.90;;;;;;6308206;22;20132;-85
2021/12/14 01:00:55;;;;;;;7.33;4.60;;;10.00;99.90;;;;;;6280875;22;20241;-86
2021/12/14 01:03:24;;;;;;;6.90;4.70;;;9.90;99.90;;;;;;6281379;22;20152;-84
2021/12/14 01:05:51;;;;;;;6.13;4.30;;;9.90;99.90;;;;;;6308445;22;20205;-86
2021/12/14 01:08:20;;;;;;;7.50;4.37;;;9.90;99.90;;;;;;6280994;22;20155;-86
2021/12/14 01:10:53;;;;;;;7.07;4.53;;;9.80;99.90;;;;;;6281229;22;20158;-85
2021/12/14 01:13:24;;;;;;;6.90;4.40;;;9.80;99.90;;;;;;6281123;22;20472;-86
2021/12/14 01:16:15;;;;;;;7.30;5.00;;;9.80;99.90;;;;;;6280960;22;20144;-85
2021/12/14 01:18:49;;;;;;;9.70;4.90;;;9.80;99.90;;;;;;6308791;22;20223;-86
2021/12/14 01:21:43;;;;;;;8.70;5.33;;;9.50;99.90;;;;;;6281404;22;20592;-86
2021/12/14 01:24:24;;;;;;;8.10;4.97;;;9.40;99.90;;;;;;6281446;22;20536;-86
2021/12/14 01:26:50;;;;;;;8.60;4.87;;;9.30;99.90;;;;;;6308891;22;20191;-86
2021/12/14 01:29:18;;;;;;;9.33;5.77;;;9.40;99.90;;;;;;6281494;22;20173;-85
2021/12/14 01:31:47;;;;;;;10.03;5.90;;;9.60;99.90;;;;;;6281623;22;20587;-86
2021/12/14 01:34:20;;;;;;;8.87;6.17;;;9.70;99.90;;;;;;6281462;22;20150;-86
2021/12/14 01:36:52;;;;;;;8.17;5.20;;;9.70;99.90;;;;;;6281209;22;20151;-86
2021/12/14 01:39:45;;;;;;;9.47;6.13;;;9.80;99.90;;;;;;6281094;22;20205;-86
2021/12/14 01:42:22;;;;;;;9.97;6.37;;;9.80;99.90;;;;;;6308238;22;20152;-86
2021/12/14 01:44:53;;;;;;;10.83;5.93;;;9.90;99.90;;;;;;6281218;22;20151;-86
2021/12/14 01:47:23;;;;;;;12.00;6.73;;;9.90;99.90;;;;;;6281532;22;20150;-86
2021/12/14 01:49:49;;;;;;;12.17;6.60;;;9.90;99.90;;;;;;6307928;22;20152;-86
2021/12/14 01:52:23;;;;;;;9.87;6.63;;;9.90;99.90;;;;;;6280926;22;20181;-86
2021/12/14 01:54:55;;;;;;;12.47;7.07;;;9.90;99.90;;;;;;6280785;22;20155;-85
2021/12/14 01:57:26;;;;;;;12.23;7.20;;;9.80;99.90;;;;;;6308612;22;20135;-87
2021/12/14 01:59:56;;;;;;;11.13;6.97;;;9.80;99.90;;;;;;6281112;22;20242;-86
2021/12/14 02:02:42;;;;;;;13.07;7.60;;;9.80;99.90;;;;;;6281411;22;20160;-86
2021/12/14 02:05:14;;;;;;;14.13;7.70;;;9.90;99.90;;;;;;6280676;22;20151;-86
2021/12/14 02:07:40;;;;;;;10.63;7.07;;;9.80;99.90;;;;;;6280782;22;20213;-86
2021/12/14 02:10:11;;;;;;;11.90;7.77;;;9.80;99.90;;;;;;6308408;22;20151;-86
2021/12/14 02:12:41;;;;;;;11.70;7.20;;;9.70;99.90;;;;;;6280645;22;20527;-86
2021/12/14 02:15:22;;;;;;;10.97;7.07;;;9.70;99.90;;;;;;6280716;22;20158;-86
2021/12/14 02:17:49;;;;;;;13.57;7.63;;;9.70;99.90;;;;;;6281164;22;20142;-86
2021/12/14 02:20:25;;;;;;;10.93;7.10;;;9.60;99.90;;;;;;6280486;22;20216;-86
2021/12/14 02:22:51;;;;;;;13.77;8.10;;;9.70;99.90;;;;;;6281146;22;20147;-86
2021/12/14 02:25:18;;;;;;;13.53;7.73;;;9.70;99.90;;;;;;6281015;22;20155;-86
2021/12/14 02:27:47;;;;;;;11.63;6.93;;;9.70;99.90;;;;;;6281125;22;20149;-87
2021/12/14 02:30:17;;;;;;;12.47;7.50;;;9.60;99.90;;;;;;6307820;22;20152;-87
2021/12/14 02:32:44;;;;;;;13.13;7.63;;;9.70;99.90;;;;;;6280755;22;20160;-86
2021/12/14 02:35:14;;;;;;;10.40;6.90;;;9.70;99.90;;;;;;6308186;22;20135;-86
2021/12/14 02:37:45;;;;;;;11.20;6.93;;;9.80;99.90;;;;;;6280523;22;20580;-85
2021/12/14 02:40:31;;;;;;;12.53;7.97;;;9.80;99.90;;;;;;6271868;22;20521;-86
2021/12/14 02:42:58;;;;;;;12.73;6.93;;;9.80;99.90;;;;;;6279409;22;20234;-85
2021/12/14 02:45:26;;;;;;;12.60;8.00;;;9.80;99.90;;;;;;6280737;22;20228;-86
2021/12/14 02:47:52;;;;;;;14.93;8.60;;;9.80;99.90;;;;;;6280687;22;20640;-86
2021/12/14 02:50:21;;;;;;;15.23;8.20;;;9.70;99.90;;;;;;6280747;22;20146;-86
2021/12/14 02:52:46;;;;;;;13.33;8.40;;;9.70;99.90;;;;;;6280813;22;20160;-86
2021/12/14 02:55:22;;;;;;;14.33;8.97;;;9.60;99.90;;;;;;6280403;22;20191;-85
2021/12/14 02:57:51;;;;;;;14.27;9.17;;;9.70;99.90;;;;;;6280429;22;20139;-86
2021/12/14 03:00:30;;;;;;;17.20;9.83;;;9.70;99.90;;;;;;6279994;22;20630;-85
2021/12/14 03:02:57;;;;;;;15.67;9.67;;;9.70;99.90;;;;;;6307761;22;20586;-86
2021/12/14 03:05:27;;;;;;;18.93;10.40;;;9.60;99.90;;;;;;6280179;22;20665;-85
2021/12/14 03:08:17;;;;;;;16.23;9.87;;;9.50;99.90;;;;;;6280439;22;20183;-86
2021/12/14 03:10:59;;;;;;;16.23;9.13;;;9.40;99.90;;;;;;6307619;22;20165;-86
2021/12/14 03:13:32;;;;;;;19.07;9.70;;;9.50;99.90;;;;;;6307371;22;20147;-86
2021/12/14 03:16:01;;;;;;;16.40;9.30;;;9.40;99.90;;;;;;6280841;22;20154;-86
2021/12/14 03:18:31;;;;;;;18.27;9.67;;;9.40;99.90;;;;;;6281004;22;20159;-86
2021/12/14 03:21:03;;;;;;;17.97;9.70;;;9.40;99.90;;;;;;6282626;22;20293;-86
2021/12/14 03:23:37;;;;;;;17.60;9.87;;;9.50;99.90;;;;;;6282991;22;20280;-86
2021/12/14 03:26:05;;;;;;;14.93;9.67;;;9.40;99.90;;;;;;6277191;22;20154;-86
2021/12/14 03:28:32;;;;;;;16.90;8.80;;;9.40;99.90;;;;;;6309927;22;20154;-84
2021/12/14 03:31:10;;;;;;;15.97;9.73;;;9.40;99.90;;;;;;6282575;22;20162;-86
2021/12/14 03:33:45;;;;;;;14.77;8.97;;;9.50;99.90;;;;;;6282425;22;20154;-86
2021/12/14 03:36:16;;;;;;;16.00;9.50;;;9.50;99.90;;;;;;6309828;22;20143;-86
2021/12/14 03:38:46;;;;;;;17.93;10.30;;;9.50;99.90;;;;;;6282357;22;20192;-86
2021/12/14 03:41:22;;;;;;;16.97;10.43;;;9.70;99.90;;;;;;6282686;22;20230;-86
2021/12/14 03:43:58;;;;;;;14.47;8.87;;;9.70;99.90;;;;;;6282450;22;20146;-86
2021/12/14 03:46:28;;;;;;;15.70;9.70;;;9.80;99.90;;;;;;6282278;22;20150;-86
2021/12/14 03:48:56;;;;;;;19.77;9.63;;;9.70;99.90;;;;;;6282283;22;20153;-86
2021/12/14 03:51:23;;;;;;;14.27;8.83;;;9.60;99.90;;;;;;6309182;22;20153;-86
2021/12/14 03:53:51;;;;;;;18.30;9.57;;;9.60;99.90;;;;;;6282106;22;20167;-86
2021/12/14 03:56:17;;;;;;;15.70;9.50;;;9.60;99.90;;;;;;6282346;22;20235;-85
2021/12/14 03:58:43;;;;;;;15.83;8.70;;;9.60;99.90;;;;;;6282241;22;20182;-86
2021/12/14 04:01:17;;;;;;;16.40;9.33;;;9.50;99.90;;;;;;6281722;22;20163;-86
2021/12/14 04:03:44;;;;;;;15.37;9.60;;;9.50;99.90;;;;;;6303825;22;20151;-85
2021/12/14 04:06:11;;;;;;;15.87;10.17;;;9.60;99.90;;;;;;6282440;22;20196;-86
2021/12/14 04:08:38;;;;;;;15.77;9.80;;;9.60;99.90;;;;;;6309940;22;20234;-86
2021/12/14 04:11:05;;;;;;;16.30;9.93;;;9.50;99.90;;;;;;6282191;22;20159;-86
2021/12/14 04:13:35;;;;;;;16.53;9.63;;;9.50;99.90;;;;;;6309104;22;20148;-86
2021/12/14 04:16:02;;;;;;;17.43;9.30;;;9.70;99.90;;;;;;6281898;22;20166;-86
2021/12/14 04:18:29;;;;;;;14.77;9.30;;;9.70;99.90;;;;;;6282020;22;20584;-86
2021/12/14 04:20:59;;;;;;;16.40;9.87;;;9.80;99.90;;;;;;6282717;22;20197;-86
2021/12/14 04:23:30;;;;;;;16.43;10.03;;;9.70;99.90;;;;;;6309336;22;20159;-85
2021/12/14 04:25:59;;;;;;;17.80;10.57;;;9.60;99.90;;;;;;6281991;22;20159;-86
2021/12/14 04:28:30;;;;;;;17.13;9.90;;;9.50;99.90;;;;;;6281927;22;20580;-85
2021/12/14 04:30:56;;;;;;;18.63;9.27;;;9.50;99.90;;;;;;6281248;22;20151;-86
2021/12/14 04:33:30;;;;;;;16.80;10.20;;;9.50;99.90;;;;;;6282232;22;20158;-86
2021/12/14 04:35:56;;;;;;;17.60;10.17;;;9.50;99.90;;;;;;6282249;22;20205;-87
2021/12/14 04:38:31;;;;;;;15.80;9.57;;;9.50;99.90;;;;;;6281636;22;20462;-86
2021/12/14 04:52:04;;;;;;;18.77;9.93;;;9.50;99.90;;;;;;6309479;22;20199;-86
2021/12/14 04:54:55;;;;;;;19.47;11.40;;;9.50;99.90;;;;;;6309043;22;20159;-86
2021/12/14 04:57:22;;;;;;;16.70;10.37;;;9.50;99.90;;;;;;6267907;22;20159;-86
2021/12/14 04:59:50;;;;;;;19.20;11.07;;;9.50;99.90;;;;;;6281368;22;20236;-86
2021/12/14 05:02:23;;;;;;;24.40;12.10;;;9.40;99.90;;;;;;6281774;22;20153;-86
2021/12/14 05:04:50;;;;;;;20.27;11.13;;;9.30;99.90;;;;;;6281822;22;20154;-86
2021/12/14 05:10:03;;;;;;;18.83;10.57;;;9.40;99.90;;;;;;6319909;22;20147;-86
2021/12/14 05:12:34;;;;;;;19.90;11.43;;;9.40;99.90;;;;;;6309110;22;20143;-87
2021/12/14 05:15:02;;;;;;;22.13;11.50;;;9.30;99.90;;;;;;6281248;22;20200;-86
2021/12/14 05:17:32;;;;;;;23.37;12.00;;;9.40;99.90;;;;;;6281250;22;20160;-86
2021/12/14 05:19:59;;;;;;;20.27;10.80;;;9.50;99.90;;;;;;6281494;22;20227;-86
2021/12/14 05:22:28;;;;;;;22.57;11.77;;;9.40;99.90;;;;;;6308644;22;20157;-85
2021/12/14 05:24:57;;;;;;;22.67;12.23;;;9.40;99.90;;;;;;6281608;22;20147;-86
2021/12/14 05:27:32;;;;;;;21.80;12.37;;;9.50;99.90;;;;;;6281412;22;20160;-86
2021/12/14 05:30:19;;;;;;;22.53;12.03;;;9.60;99.90;;;;;;6275822;22;20642;-86
2021/12/14 05:32:46;;;;;;;24.87;12.90;;;9.50;99.90;;;;;;6274399;22;20167;-86
2021/12/14 05:35:16;;;;;;;22.87;12.33;;;9.50;99.90;;;;;;6308802;22;20446;-86
2021/12/14 05:37:47;;;;;;;27.13;14.17;;;9.50;99.90;;;;;;6281530;22;20145;-86
2021/12/14 05:41:10;;;;;;;25.63;13.27;;;9.50;99.90;;;;;;6281471;22;20238;-87
2021/12/14 05:43:29;;;;;;;24.50;12.63;;;9.40;99.90;;;;;;6291888;22;20472;-86
2021/12/14 05:45:58;;;;;;;21.63;12.53;;;9.40;99.90;;;;;;6280106;22;20483;-87
2021/12/14 05:48:30;;;;;;;24.43;12.50;;;9.40;99.90;;;;;;6281510;22;20149;-86
2021/12/14 05:51:01;;;;;;;25.50;13.07;;;9.40;99.90;;;;;;6301881;22;20155;-87
2021/12/14 05:53:40;;;;;;;25.37;13.70;;;9.50;99.90;;;;;;6281203;22;20203;-86
2021/12/14 05:56:15;;;;;;;27.33;13.90;;;9.60;99.90;;;;;;6281186;22;20176;-86
2021/12/14 05:58:42;;;;;;;25.13;12.93;;;9.70;99.90;;;;;;6280796;22;20169;-86
2021/12/14 06:01:13;;;;;;;29.37;14.93;;;9.60;99.90;;;;;;6308587;22;20576;-86
2021/12/14 06:03:43;;;;;;;26.60;14.53;;;9.50;99.90;;;;;;6274910;22;20153;-86
2021/12/14 06:06:19;;;;;;;31.33;16.53;;;9.50;99.90;;;;;;6308508;22;20218;-86
2021/12/14 06:08:45;;;;;;;28.57;14.23;;;9.40;99.90;;;;;;6281298;22;20162;-86
2021/12/14 06:11:28;;;;;;;26.23;13.77;;;9.40;99.90;;;;;;6280851;22;20196;-86
2021/12/14 06:13:54;;;;;;;26.37;14.17;;;9.40;99.90;;;;;;6281017;22;20224;-86
2021/12/14 06:16:30;;;;;;;31.37;15.47;;;9.30;99.90;;;;;;6281283;22;20516;-86
2021/12/14 06:19:22;;;;;;;26.93;13.87;;;9.30;99.90;;;;;;6281158;22;20174;-86
2021/12/14 06:21:52;;;;;;;29.33;15.97;;;9.30;99.90;;;;;;6280605;22;20581;-86
2021/12/14 06:24:20;;;;;;;32.80;16.53;;;9.20;99.90;;;;;;6307877;22;20194;-85
2021/12/14 06:26:49;;;;;;;30.80;14.67;;;9.20;99.90;;;;;;6280913;22;20157;-85
2021/12/14 06:29:22;;;;;;;33.10;16.00;;;9.30;99.90;;;;;;6280887;22;20146;-85
2021/12/14 06:31:48;;;;;;;35.83;16.77;;;9.30;99.90;;;;;;6280955;22;20186;-86
2021/12/14 06:34:25;;;;;;;33.63;16.60;;;9.40;99.90;;;;;;6308058;22;20136;-86
2021/12/14 06:37:20;;;;;;;36.60;16.93;;;9.40;99.90;;;;;;6280837;22;20178;-85
2021/12/14 06:40:18;;;;;;;34.47;16.57;;;9.30;99.90;;;;;;6307880;22;20178;-86
2021/12/14 06:42:57;;;;;;;35.13;16.77;;;9.30;99.90;;;;;;6280976;22;20151;-85
2021/12/14 06:45:36;;;;;;;40.47;18.83;;;9.20;99.90;;;;;;6281327;22;20146;-86
2021/12/14 06:48:09;;;;;;;40.63;18.57;;;9.20;99.90;;;;;;6308238;22;20162;-86
2021/12/14 06:51:15;;;;;;;42.07;20.03;;;9.20;99.90;;;;;;6308335;22;20138;-86
2021/12/14 06:53:44;;;;;;;39.73;18.83;;;9.20;99.90;;;;;;6280538;22;20151;-86
2021/12/14 06:56:12;;;;;;;38.33;19.10;;;9.10;99.90;;;;;;6280820;22;20143;-86
2021/12/14 06:58:52;;;;;;;38.50;18.63;;;9.10;99.90;;;;;;6280376;22;20181;-85
2021/12/14 07:01:24;;;;;;;41.07;20.17;;;9.20;99.90;;;;;;6281055;22;20208;-86
2021/12/14 07:04:00;;;;;;;44.57;19.57;;;9.20;99.90;;;;;;6281227;22;20228;-86
2021/12/14 17:09:22;;;;;;;41.70;20.67;;;10.80;99.90;;;;;;6300443;22;20198;-95
2021/12/14 17:11:49;;;;;;;39.23;22.23;;;10.80;99.90;;;;;;6190004;23;20181;-81
2021/12/14 17:14:23;;;;;;;39.07;21.93;;;10.80;99.90;;;;;;6216200;23;20128;-81
2021/12/14 17:16:56;;;;;;;41.57;22.83;;;10.70;99.90;;;;;;6216379;23;20140;-81
2021/12/14 17:19:22;;;;;;;34.93;20.57;;;10.70;99.90;;;;;;6215762;23;20168;-81
2021/12/14 17:21:54;;;;;;;42.60;21.87;;;10.80;99.90;;;;;;6216171;23;20144;-80
2021/12/14 17:24:27;;;;;;;40.77;21.97;;;10.80;99.90;;;;;;6215841;23;20136;-81
2021/12/14 17:26:57;;;;;;;42.43;23.63;;;10.80;99.90;;;;;;6216100;23;20517;-81
2021/12/14 17:29:31;;;;;;;38.93;21.70;;;10.80;99.90;;;;;;6215959;23;20140;-80
2021/12/14 17:32:06;;;;;;;39.27;21.40;;;10.80;99.90;;;;;;6216100;23;20217;-81
2021/12/14 17:34:35;;;;;;;38.63;20.97;;;10.60;99.90;;;;;;6215545;23;20140;-80
2021/12/14 17:37:08;;;;;;;37.97;21.13;;;10.60;99.90;;;;;;6215921;23;20146;-81
2021/12/14 17:39:40;;;;;;;39.33;21.43;;;10.70;99.90;;;;;;6215208;23;20486;-81
2021/12/14 17:42:13;;;;;;;38.37;23.20;;;10.80;99.90;;;;;;6216232;23;20142;-81
2021/12/14 17:44:42;;;;;;;38.80;21.40;;;10.80;99.90;;;;;;6215623;23;20143;-81
2021/12/14 17:47:12;;;;;;;39.60;22.00;;;10.80;99.90;;;;;;6215755;23;20160;-81
2021/12/14 17:49:50;;;;;;;38.40;21.37;;;10.80;99.90;;;;;;6215749;23;20146;-82
2021/12/14 17:52:23;;;;;;;38.03;22.10;;;10.90;99.90;;;;;;6216044;23;20546;-80
2021/12/14 17:54:56;;;;;;;37.20;21.60;;;10.90;99.90;;;;;;6215800;23;20140;-81
2021/12/14 17:57:23;;;;;;;38.13;19.90;;;10.90;99.90;;;;;;6234230;23;20165;-80
2021/12/14 18:00:08;;;;;;;38.53;21.20;;;10.80;99.90;;;;;;6245888;23;20218;-80
2021/12/14 18:02:50;;;;;;;37.30;20.67;;;11.00;99.90;;;;;;6245465;23;20802;-80
2021/12/14 18:05:29;;;;;;;38.67;20.93;;;11.00;99.90;;;;;;6245971;23;20143;-78
2021/12/14 18:08:19;;;;;;;37.70;20.33;;;11.00;99.90;;;;;;6246168;23;20167;-79
2021/12/14 18:10:56;;;;;;;42.63;22.07;;;10.90;99.90;;;;;;6230989;23;20171;-80
2021/12/14 18:13:32;;;;;;;37.43;22.53;;;11.00;99.90;;;;;;6246125;23;20143;-79
2021/12/14 18:16:10;;;;;;;42.40;21.77;;;10.90;99.90;;;;;;6235395;23;20209;-80
2021/12/14 18:21:25;;;;;;;43.70;23.97;;;10.90;99.90;;;;;;6245597;23;20205;-80
2021/12/14 18:23:54;;;;;;;36.50;20.47;;;11.10;99.90;;;;;;6245875;23;20145;-79
2021/12/14 18:26:22;;;;;;;35.43;20.33;;;11.10;99.90;;;;;;6245759;23;20632;-80
2021/12/14 18:28:55;;;;;;;41.70;21.80;;;11.00;99.90;;;;;;6245544;23;20146;-79
2021/12/14 18:31:22;;;;;;;38.30;20.93;;;11.00;99.90;;;;;;6244923;23;20525;-80
2021/12/14 18:34:01;;;;;;;37.97;20.60;;;11.00;99.90;;;;;;6245459;23;20218;-81
2021/12/14 18:36:39;;;;;;;77.27;35.67;;;11.00;99.90;;;;;;6245264;23;20143;-80
2021/12/14 18:39:15;;;;;;;44.90;24.53;;;10.90;99.90;;;;;;6245390;23;20171;-82
2021/12/14 18:41:41;;;;;;;41.80;23.07;;;10.90;99.90;;;;;;6245693;23;20160;-80
2021/12/14 18:44:23;;;;;;;39.73;22.00;;;11.00;99.90;;;;;;6245403;23;20140;-81
2021/12/14 18:49:40;;;;;;;37.97;20.50;;;10.80;99.90;;;;;;6247754;23;20152;-80
2021/12/14 18:52:27;;;;;;;39.03;21.60;;;10.80;99.90;;;;;;6245486;23;20144;-80
2021/12/14 18:54:59;;;;;;;41.00;21.47;;;11.00;99.90;;;;;;6244155;23;20147;-80
2021/12/14 18:57:27;;;;;;;35.53;20.70;;;11.00;99.90;;;;;;6244539;23;20171;-80
2021/12/14 18:59:58;;;;;;;37.17;20.80;;;11.00;99.90;;;;;;6245156;23;20178;-80
2021/12/14 19:02:32;;;;;;;38.07;20.80;;;10.90;99.90;;;;;;6245198;23;20150;-80
2021/12/14 19:05:14;;;;;;;42.13;21.27;;;10.90;99.90;;;;;;6245057;23;20143;-81
2021/12/14 19:07:44;;;;;;;40.60;22.07;;;10.90;99.90;;;;;;6245213;23;20143;-80
2021/12/14 19:10:17;;;;;;;35.63;20.43;;;11.00;99.90;;;;;;6245035;23;20592;-80
2021/12/14 19:12:47;;;;;;;37.87;21.17;;;11.20;99.90;;;;;;6245021;23;20173;-81
2021/12/14 19:15:25;;;;;;;38.73;20.70;;;11.10;99.90;;;;;;6214676;23;20564;-80
2021/12/14 19:17:55;;;;;;;36.67;20.73;;;11.10;99.90;;;;;;6245123;23;20450;-79
2021/12/14 19:20:43;;;;;;;38.53;21.23;;;11.10;99.90;;;;;;6244244;23;20186;-80
2021/12/14 19:23:11;;;;;;;36.80;20.13;;;11.00;99.90;;;;;;6245499;23;20185;-79
2021/12/14 19:25:40;;;;;;;38.70;20.67;;;10.90;99.90;;;;;;6245462;23;20150;-80
2021/12/14 19:28:15;;;;;;;39.87;22.10;;;10.90;99.90;;;;;;6245080;23;20173;-79
2021/12/14 19:30:45;;;;;;;36.47;20.23;;;10.90;99.90;;;;;;6245178;23;20196;-79
2021/12/14 19:33:11;;;;;;;35.10;20.70;;;10.90;99.90;;;;;;6245062;23;20145;-80
2021/12/14 19:35:41;;;;;;;39.27;21.33;;;10.90;99.90;;;;;;6244983;23;20142;-80
2021/12/14 19:38:28;;;;;;;38.93;20.90;;;10.90;99.90;;;;;;6244917;23;20154;-78
2021/12/14 19:41:07;;;;;;;37.67;21.07;;;11.00;99.90;;;;;;6244287;23;20278;-80
2021/12/14 19:43:42;;;;;;;36.33;21.13;;;11.10;99.90;;;;;;6243746;23;20170;-80
2021/12/14 19:46:20;;;;;;;37.47;20.43;;;11.10;99.90;;;;;;6244493;23;20143;-79
2021/12/14 19:48:52;;;;;;;34.23;19.43;;;11.20;99.90;;;;;;6233134;23;20139;-81
2021/12/14 19:51:34;;;;;;;35.60;19.77;;;11.10;99.90;;;;;;6243760;23;20143;-80
2021/12/14 19:54:05;;;;;;;39.83;21.33;;;11.10;99.90;;;;;;6244892;23;20205;-80
2021/12/14 19:56:31;;;;;;;36.70;20.03;;;11.00;99.90;;;;;;6244753;22;20164;-80
2021/12/14 19:58:59;;;;;;;39.83;20.90;;;10.90;99.90;;;;;;6242731;23;20643;-79
2021/12/14 20:01:27;;;;;;;36.50;21.23;;;11.00;99.90;;;;;;6246682;23;20151;-79
2021/12/14 20:03:56;;;;;;;39.43;21.10;;;10.90;99.90;;;;;;6246581;23;20151;-79
2021/12/14 20:06:27;;;;;;;38.90;22.20;;;11.00;99.90;;;;;;6246784;23;20148;-79
2021/12/14 20:09:03;;;;;;;34.67;20.27;;;10.90;99.90;;;;;;6246692;23;20139;-78
2021/12/14 20:11:41;;;;;;;35.47;20.97;;;10.70;99.90;;;;;;6245596;23;20166;-80
2021/12/14 20:14:14;;;;;;;38.03;20.33;;;10.70;99.90;;;;;;6245834;23;20173;-79
2021/12/14 20:16:45;;;;;;;39.40;22.03;;;10.70;99.90;;;;;;6246273;23;20150;-80
2021/12/14 20:19:12;;;;;;;40.73;21.50;;;10.80;99.90;;;;;;6246379;23;20205;-81
2021/12/14 20:21:42;;;;;;;37.93;20.90;;;10.80;99.90;;;;;;6246724;23;20146;-79
2021/12/14 20:24:16;;;;;;;39.80;21.70;;;10.80;99.90;;;;;;6246650;23;20157;-81
2021/12/14 20:26:52;;;;;;;40.17;22.87;;;10.90;99.90;;;;;;6245762;23;20150;-80
2021/12/14 20:29:25;;;;;;;38.10;21.23;;;10.90;99.90;;;;;;6245241;23;20146;-81
2021/12/14 20:31:58;;;;;;;40.47;22.43;;;10.80;99.90;;;;;;6246701;23;20503;-81
2021/12/14 20:34:48;;;;;;;39.37;22.00;;;10.80;99.90;;;;;;6245889;22;20610;-92
2021/12/14 20:37:19;;;;;;;40.53;21.93;;;10.70;99.90;;;;;;6246953;22;20186;-82
2021/12/14 20:39:53;;;;;;;41.20;22.27;;;10.70;99.90;;;;;;6247147;23;20281;-81
2021/12/14 20:42:33;;;;;;;38.90;22.37;;;10.70;99.90;;;;;;6243957;23;20155;-81
2021/12/14 20:47:46;;;;;;;39.13;20.97;;;10.60;99.90;;;;;;6247332;23;20166;-82
2021/12/14 20:50:16;;;;;;;41.03;21.03;;;10.60;99.90;;;;;;6246680;23;20146;-81
2021/12/14 20:52:47;;;;;;;41.37;22.33;;;10.60;99.90;;;;;;6246227;23;20562;-81
2021/12/14 20:55:18;;;;;;;38.70;21.67;;;10.60;99.90;;;;;;6247044;23;20177;-82
2021/12/14 20:57:49;;;;;;;42.30;22.27;;;10.70;99.90;;;;;;6244682;23;20216;-81
2021/12/14 21:00:23;;;;;;;44.20;22.60;;;10.80;99.90;;;;;;6246623;23;20506;-80
2021/12/14 21:02:51;;;;;;;41.17;22.63;;;10.70;99.90;;;;;;6246973;23;20176;-80
2021/12/14 21:05:18;;;;;;;44.97;24.37;;;10.50;99.90;;;;;;6245785;23;20143;-80
2021/12/14 21:07:43;;;;;;;43.53;24.07;;;10.50;99.90;;;;;;6246455;23;20178;-80
2021/12/14 21:10:16;;;;;;;67.40;33.70;;;10.50;99.90;;;;;;6245241;23;20591;-80
2021/12/14 21:12:44;;;;;;;42.47;23.20;;;10.60;99.90;;;;;;6246015;23;20144;-80
2021/12/14 21:15:19;;;;;;;48.80;24.30;;;10.60;99.90;;;;;;6245865;23;20248;-80
2021/12/14 21:17:49;;;;;;;44.93;23.17;;;10.80;99.90;;;;;;6246187;23;20198;-79
2021/12/14 21:20:29;;;;;;;47.90;25.00;;;10.80;99.90;;;;;;6247125;23;20189;-80
2021/12/14 21:22:59;;;;;;;42.20;23.67;;;10.70;99.90;;;;;;6246659;23;20190;-80
2021/12/14 21:25:53;;;;;;;42.17;23.23;;;10.80;99.90;;;;;;6245926;22;20182;-79
2021/12/14 21:28:23;;;;;;;40.53;21.93;;;10.80;99.90;;;;;;6244477;23;20156;-80
2021/12/14 21:30:55;;;;;;;43.37;22.70;;;10.80;99.90;;;;;;6246760;23;20152;-79
2021/12/14 21:33:29;;;;;;;47.20;24.53;;;10.70;99.90;;;;;;6246589;23;20187;-79
2021/12/14 21:36:06;;;;;;;47.17;24.87;;;10.60;99.90;;;;;;6246697;23;20222;-79
2021/12/14 21:38:40;;;;;;;43.80;23.60;;;10.60;99.90;;;;;;6246364;23;20209;-79
2021/12/14 21:41:19;;;;;;;48.67;24.20;;;10.50;99.90;;;;;;6244329;23;20209;-79
2021/12/14 21:44:00;;;;;;;47.83;24.00;;;10.50;99.90;;;;;;6246259;23;20473;-80
2021/12/14 21:46:44;;;;;;;45.00;23.33;;;10.50;99.90;;;;;;6246240;23;20522;-80
2021/12/14 21:49:12;;;;;;;42.47;21.53;;;10.50;99.90;;;;;;6246031;23;20522;-79
2021/12/14 21:51:38;;;;;;;46.53;24.20;;;10.40;99.90;;;;;;6246335;23;20145;-79
2021/12/14 21:54:05;;;;;;;45.80;22.33;;;10.40;99.90;;;;;;6245859;23;20145;-80
2021/12/14 21:56:30;;;;;;;46.00;22.80;;;10.50;99.90;;;;;;6246144;23;20195;-79
2021/12/14 21:58:57;;;;;;;44.07;23.37;;;10.50;99.90;;;;;;6246001;23;20146;-80
2021/12/14 22:01:23;;;;;;;44.20;23.53;;;10.60;99.90;;;;;;6244662;22;20178;-80
2021/12/14 22:03:49;;;;;;;48.03;24.23;;;10.60;99.90;;;;;;6246402;23;20144;-80
2021/12/14 22:06:16;;;;;;;45.13;23.63;;;10.50;99.90;;;;;;6270295;22;20205;-79
2021/12/14 22:08:42;;;;;;;49.23;24.10;;;10.60;99.90;;;;;;6246007;23;20140;-80
2021/12/14 22:11:12;;;;;;;50.53;25.77;;;10.60;99.90;;;;;;6245686;23;20163;-80
2021/12/14 22:13:44;;;;;;;50.67;25.50;;;10.50;99.90;;;;;;6245341;23;20151;-80
2021/12/14 22:16:14;;;;;;;46.63;22.37;;;10.40;99.90;;;;;;6245463;23;20143;-80
2021/12/14 22:18:41;;;;;;;49.83;24.13;;;10.50;99.90;;;;;;6246141;23;20149;-80
2021/12/14 22:21:08;;;;;;;53.93;24.97;;;10.50;99.90;;;;;;6245925;23;20178;-80
2021/12/14 22:23:38;;;;;;;51.57;24.70;;;10.40;99.90;;;;;;6245249;23;20140;-80
2021/12/14 22:26:08;;;;;;;46.53;23.23;;;10.30;99.90;;;;;;6245936;23;20584;-80
2021/12/14 22:28:34;;;;;;;47.53;23.73;;;10.40;99.90;;;;;;6246318;23;20139;-80
2021/12/14 22:31:01;;;;;;;45.03;23.97;;;10.40;99.90;;;;;;6246176;23;20607;-80
2021/12/14 22:33:27;;;;;;;43.60;21.50;;;10.50;99.90;;;;;;6246555;23;20148;-80
2021/12/14 22:35:55;;;;;;;47.37;23.33;;;10.50;99.90;;;;;;6246140;23;20150;-77
2021/12/14 22:38:22;;;;;;;43.00;22.57;;;10.40;99.90;;;;;;6245863;23;20147;-80
2021/12/14 22:46:21;;;;;;;46.43;23.17;;;10.40;99.90;;;;;;6245000;22;20216;-80
2021/12/14 22:48:49;;;;;;;48.60;22.93;;;10.50;99.90;;;;;;6245397;23;20225;-80
2021/12/14 22:51:15;;;;;;;44.57;22.63;;;10.50;99.90;;;;;;6244812;23;20658;-78
2021/12/14 22:53:41;;;;;;;49.23;24.10;;;10.60;99.90;;;;;;6245809;23;20187;-80
2021/12/14 22:56:07;;;;;;;46.53;23.57;;;10.50;99.90;;;;;;6243244;23;20565;-79
2021/12/14 22:58:33;;;;;;;46.07;22.53;;;10.50;99.90;;;;;;6245323;23;20178;-80
2021/12/14 23:01:07;;;;;;;46.20;22.47;;;10.50;99.90;;;;;;6245081;23;20182;-79
2021/12/14 23:03:38;;;;;;;46.30;23.23;;;10.50;99.90;;;;;;6245106;23;20170;-80
2021/12/14 23:06:05;;;;;;;47.17;23.63;;;10.50;99.90;;;;;;6244694;23;20156;-80
2021/12/14 23:08:31;;;;;;;48.30;24.57;;;10.50;99.90;;;;;;6244750;23;20483;-79
2021/12/14 23:10:58;;;;;;;52.70;25.20;;;10.60;99.90;;;;;;6244290;23;20330;-79
2021/12/14 23:13:33;;;;;;;43.53;22.77;;;10.50;99.90;;;;;;6245119;23;20170;-79
2021/12/14 23:16:04;;;;;;;45.77;23.27;;;10.60;99.90;;;;;;6244885;23;20651;-79
2021/12/14 23:18:49;;;;;;;52.33;24.80;;;10.50;99.90;;;;;;6245111;23;20224;-81
2021/12/14 23:21:15;;;;;;;46.20;22.97;;;10.50;99.90;;;;;;6244931;23;20184;-80
2021/12/14 23:23:41;;;;;;;50.97;23.70;;;10.50;99.90;;;;;;6245043;23;20184;-79
2021/12/14 23:26:09;;;;;;;47.80;23.20;;;10.60;99.90;;;;;;6244866;23;20144;-79
2021/12/14 23:28:35;;;;;;;46.53;23.70;;;10.70;99.90;;;;;;6245151;23;20175;-79
2021/12/14 23:31:03;;;;;;;43.57;22.87;;;10.50;99.90;;;;;;6245138;23;20142;-80
2021/12/14 23:33:30;;;;;;;44.80;21.47;;;10.40;99.90;;;;;;6244993;23;20160;-79
2021/12/14 23:36:00;;;;;;;39.70;21.97;;;10.40;99.90;;;;;;6246265;23;20482;-80